createdAt,value
2018-05-15T00:00:28.236Z,17.40
2018-05-15T00:02:30.718Z,17.40
2018-05-15T00:04:33.177Z,17.40
2018-05-15T00:06:35.685Z,17.30
2018-05-15T00:08:38.117Z,17.30
2018-05-15T00:10:40.560Z,17.30
2018-05-15T00:12:43.774Z,17.20
2018-05-15T00:14:46.239Z,17.20
2018-05-15T00:16:49.784Z,17.30
2018-05-15T00:20:56.033Z,17.10
2018-05-15T00:22:58.480Z,17.10
2018-05-15T00:25:00.952Z,17.00
2018-05-15T00:27:03.439Z,17.00
2018-05-15T00:29:05.910Z,17.00
2018-05-15T00:31:08.930Z,17.00
2018-05-15T00:33:11.384Z,17.00
2018-05-15T00:35:13.933Z,16.90
2018-05-15T00:37:16.382Z,16.90
2018-05-15T00:39:18.813Z,16.90
2018-05-15T00:41:21.252Z,16.80
2018-05-15T00:43:24.824Z,16.80
2018-05-15T00:45:27.296Z,16.80
2018-05-15T00:47:30.514Z,16.80
2018-05-15T00:49:32.962Z,16.80
2018-05-15T00:51:36.568Z,16.80
2018-05-15T00:53:39.123Z,16.70
2018-05-15T00:55:43.456Z,16.70
2018-05-15T00:57:45.919Z,16.70
2018-05-15T00:59:48.368Z,16.70
2018-05-15T01:01:50.805Z,16.70
2018-05-15T01:03:54.164Z,16.60
2018-05-15T01:05:56.596Z,16.60
2018-05-15T01:07:59.051Z,16.60
2018-05-15T01:10:02.306Z,16.50
2018-05-15T01:12:04.742Z,16.50
2018-05-15T01:14:07.198Z,16.50
2018-05-15T01:16:09.690Z,16.50
2018-05-15T01:18:12.113Z,16.50
2018-05-15T01:20:15.316Z,16.40
2018-05-15T01:22:17.781Z,16.40
2018-05-15T01:24:20.312Z,16.40
2018-05-15T01:26:22.856Z,16.30
2018-05-15T01:28:25.325Z,16.30
2018-05-15T01:30:27.764Z,16.30
2018-05-15T01:32:30.264Z,16.30
2018-05-15T01:34:32.717Z,16.30
2018-05-15T01:36:35.165Z,16.20
2018-05-15T01:38:38.381Z,16.20
2018-05-15T01:40:40.826Z,16.10
2018-05-15T01:42:43.332Z,16.10
2018-05-15T01:44:45.781Z,16.10
2018-05-15T01:46:48.261Z,16.10
2018-05-15T01:48:50.768Z,16.00
2018-05-15T01:50:53.220Z,15.90
2018-05-15T01:52:55.660Z,15.90
2018-05-15T01:54:58.124Z,15.90
2018-05-15T01:57:00.552Z,15.90
2018-05-15T01:59:03.085Z,15.80
2018-05-15T02:01:05.761Z,15.80
2018-05-15T02:03:08.173Z,15.70
2018-05-15T02:05:10.628Z,15.70
2018-05-15T02:07:13.176Z,15.70
2018-05-15T02:09:15.618Z,15.70
2018-05-15T02:11:18.132Z,15.60
2018-05-15T02:13:20.593Z,15.60
2018-05-15T02:15:23.098Z,15.60
2018-05-15T02:17:25.516Z,15.60
2018-05-15T02:19:28.016Z,15.50
2018-05-15T02:21:30.444Z,15.50
2018-05-15T02:23:32.959Z,15.50
2018-05-15T02:25:35.428Z,15.50
2018-05-15T02:27:37.857Z,15.40
2018-05-15T02:29:40.344Z,15.40
2018-05-15T02:31:42.812Z,15.40
2018-05-15T02:33:45.289Z,15.40
2018-05-15T02:35:47.748Z,15.40
2018-05-15T02:37:50.192Z,15.30
2018-05-15T02:39:52.651Z,15.30
2018-05-15T02:41:55.902Z,15.20
2018-05-15T02:43:58.372Z,15.20
2018-05-15T02:46:00.857Z,15.20
2018-05-15T02:48:03.291Z,15.20
2018-05-15T02:50:05.747Z,15.10
2018-05-15T02:52:08.189Z,15.10
2018-05-15T02:54:10.620Z,15.10
2018-05-15T02:56:13.169Z,15.10
2018-05-15T02:58:15.594Z,15.10
2018-05-15T03:00:18.833Z,15.00
2018-05-15T03:02:21.275Z,15.00
2018-05-15T03:04:23.760Z,15.00
2018-05-15T03:06:26.205Z,14.90
2018-05-15T03:08:29.390Z,14.90
2018-05-15T03:10:32.636Z,14.90
2018-05-15T03:12:35.068Z,14.80
2018-05-15T03:14:37.501Z,14.80
2018-05-15T03:16:40.780Z,14.80
2018-05-15T03:18:43.282Z,14.70
2018-05-15T03:20:46.489Z,14.70
2018-05-15T03:22:48.916Z,14.70
2018-05-15T03:24:52.203Z,14.70
2018-05-15T03:26:54.640Z,14.60
2018-05-15T03:28:57.089Z,14.70
2018-05-15T03:30:59.541Z,14.60
2018-05-15T03:33:02.036Z,14.60
2018-05-15T03:35:04.516Z,14.60
2018-05-15T03:37:06.969Z,14.60
2018-05-15T03:39:09.468Z,14.50
2018-05-15T03:41:11.894Z,14.50
2018-05-15T03:43:14.326Z,14.50
2018-05-15T03:45:16.772Z,14.50
2018-05-15T03:47:19.220Z,14.50
2018-05-15T03:49:21.679Z,14.40
2018-05-15T03:51:24.132Z,14.40
2018-05-15T03:53:27.353Z,14.40
2018-05-15T03:55:29.821Z,14.40
2018-05-15T03:57:32.279Z,14.40
2018-05-15T03:59:34.725Z,14.40
2018-05-15T04:01:49.848Z,14.40
2018-05-15T04:04:04.249Z,14.40
2018-05-15T04:06:19.286Z,14.40
2018-05-15T04:08:21.729Z,14.40
2018-05-15T04:10:24.169Z,14.40
2018-05-15T04:12:26.664Z,14.50
2018-05-15T04:14:29.105Z,14.50
2018-05-15T04:16:31.558Z,14.50
2018-05-15T04:18:34.757Z,14.60
2018-05-15T04:20:37.197Z,14.50
2018-05-15T04:22:41.348Z,14.60
2018-05-15T04:24:43.836Z,14.60
2018-05-15T04:26:46.297Z,14.60
2018-05-15T04:28:48.737Z,14.70
2018-05-15T04:30:51.248Z,14.70
2018-05-15T04:32:53.704Z,14.80
2018-05-15T04:34:56.118Z,14.80
2018-05-15T04:36:58.548Z,14.90
2018-05-15T04:39:01.027Z,14.90
2018-05-15T04:41:03.488Z,15.00
2018-05-15T04:43:05.945Z,15.00
2018-05-15T04:45:08.365Z,15.00
2018-05-15T04:47:10.804Z,15.10
2018-05-15T04:49:13.266Z,15.10
2018-05-15T04:51:15.716Z,15.20
2018-05-15T04:53:18.208Z,15.60
2018-05-15T04:55:20.640Z,16.20
2018-05-15T04:57:23.877Z,17.70
2018-05-15T04:59:26.338Z,17.70
2018-05-15T05:01:28.760Z,18.40
2018-05-15T05:03:31.972Z,19.60
2018-05-15T05:05:34.408Z,19.60
2018-05-15T05:07:37.614Z,20.70
2018-05-15T05:09:40.820Z,21.20
2018-05-15T05:11:43.300Z,21.10
2018-05-15T05:13:46.452Z,21.80
2018-05-15T05:15:49.644Z,22.10
2018-05-15T05:17:52.867Z,22.50
2018-05-15T05:19:56.457Z,22.80
2018-05-15T05:21:58.972Z,22.70
2018-05-15T05:24:01.405Z,23.00
2018-05-15T05:26:03.886Z,23.20
2018-05-15T05:28:06.329Z,23.30
2018-05-15T05:30:08.749Z,23.60
2018-05-15T05:32:11.944Z,24.20
2018-05-15T05:34:14.376Z,24.20
2018-05-15T05:36:16.848Z,24.20
2018-05-15T05:38:19.337Z,24.30
2018-05-15T05:40:21.789Z,24.60
2018-05-15T05:42:24.307Z,24.60
2018-05-15T05:44:26.682Z,24.80
2018-05-15T05:46:29.994Z,25.00
2018-05-15T05:48:32.407Z,25.00
2018-05-15T05:50:34.828Z,25.10
2018-05-15T05:52:37.299Z,25.30
2018-05-15T05:54:40.484Z,25.40
2018-05-15T05:56:42.935Z,25.50
2018-05-15T05:58:46.164Z,25.20
2018-05-15T06:00:48.577Z,25.20
2018-05-15T06:02:51.012Z,25.10
2018-05-15T06:04:53.483Z,25.30
2018-05-15T06:06:55.948Z,25.50
2018-05-15T06:08:58.416Z,25.40
2018-05-15T06:11:00.884Z,25.40
2018-05-15T06:13:03.348Z,25.60
2018-05-15T06:15:05.781Z,25.70
2018-05-15T06:17:09.012Z,26.00
2018-05-15T06:19:11.444Z,25.90
2018-05-15T06:21:14.665Z,25.90
2018-05-15T06:23:17.104Z,25.90
2018-05-15T06:25:19.649Z,26.00
2018-05-15T06:27:22.105Z,25.70
2018-05-15T06:29:24.504Z,25.40
2018-05-15T06:31:27.752Z,25.30
2018-05-15T06:33:30.182Z,25.30
2018-05-15T06:35:33.388Z,25.50
2018-05-15T06:37:35.820Z,25.60
2018-05-15T06:39:39.036Z,25.40
2018-05-15T06:41:41.532Z,25.40
2018-05-15T06:43:44.009Z,25.20
2018-05-15T06:45:46.464Z,25.40
2018-05-15T06:47:48.930Z,25.30
2018-05-15T06:49:51.360Z,25.10
2018-05-15T06:51:54.604Z,24.20
2018-05-15T06:53:57.081Z,24.20
2018-05-15T06:55:59.541Z,23.70
2018-05-15T06:58:01.985Z,23.40
2018-05-15T07:00:04.420Z,23.00
2018-05-15T07:02:08.476Z,22.60
2018-05-15T07:04:10.898Z,22.60
2018-05-15T07:06:14.109Z,22.30
2018-05-15T07:08:16.621Z,22.30
2018-05-15T07:10:19.079Z,22.30
2018-05-15T07:12:21.532Z,22.30
2018-05-15T07:14:24.000Z,22.30
2018-05-15T07:16:26.493Z,22.10
2018-05-15T07:18:28.956Z,22.10
2018-05-15T07:20:31.426Z,22.20
2018-05-15T07:22:33.876Z,22.20
2018-05-15T07:24:36.309Z,22.20
2018-05-15T07:26:38.747Z,22.10
2018-05-15T07:28:41.201Z,21.90
2018-05-15T07:30:43.689Z,21.80
2018-05-15T07:32:46.141Z,21.80
2018-05-15T07:34:48.572Z,21.90
2018-05-15T07:36:51.821Z,22.00
2018-05-15T07:38:54.981Z,22.00
2018-05-15T07:40:57.422Z,22.10
2018-05-15T07:43:00.622Z,22.20
2018-05-15T07:45:03.108Z,22.20
2018-05-15T07:47:05.582Z,22.30
2018-05-15T07:49:08.013Z,22.30
2018-05-15T07:51:11.237Z,22.00
2018-05-15T07:53:13.675Z,22.00
2018-05-15T07:55:16.863Z,22.20
2018-05-15T07:57:20.054Z,22.30
2018-05-15T07:59:23.267Z,22.30
2018-05-15T08:01:25.708Z,22.30
2018-05-15T08:03:28.924Z,22.40
2018-05-15T08:05:31.363Z,22.40
2018-05-15T08:07:34.566Z,22.40
2018-05-15T08:09:37.052Z,22.40
2018-05-15T08:11:39.484Z,22.60
2018-05-15T08:13:42.716Z,22.60
2018-05-15T08:15:45.157Z,22.60
2018-05-15T08:17:48.356Z,22.70
2018-05-15T08:19:50.853Z,22.70
2018-05-15T08:21:53.301Z,22.70
2018-05-15T08:23:56.222Z,22.80
2018-05-15T08:25:58.647Z,22.80
2018-05-15T08:28:01.091Z,22.80
2018-05-15T08:30:04.349Z,23.10
2018-05-15T08:32:06.772Z,23.10
2018-05-15T08:34:09.242Z,23.30
2018-05-15T08:36:11.672Z,23.30
2018-05-15T08:38:14.117Z,23.30
2018-05-15T08:40:16.611Z,23.20
2018-05-15T08:42:19.098Z,23.20
2018-05-15T08:44:21.640Z,23.40
2018-05-15T08:46:24.186Z,23.50
2018-05-15T08:48:26.670Z,23.40
2018-05-15T08:50:29.109Z,23.40
2018-05-15T08:52:31.944Z,23.50
2018-05-15T08:54:34.485Z,23.60
2018-05-15T08:56:36.930Z,23.50
2018-05-15T08:58:39.354Z,23.50
2018-05-15T09:00:41.871Z,23.50
2018-05-15T09:02:44.377Z,23.60
2018-05-15T09:04:46.789Z,23.80
2018-05-15T09:06:50.009Z,24.00
2018-05-15T09:08:52.484Z,24.00
2018-05-15T09:10:54.952Z,24.00
2018-05-15T09:12:57.392Z,23.90
2018-05-15T09:15:00.605Z,24.10
2018-05-15T09:17:03.016Z,24.10
2018-05-15T09:19:05.447Z,24.20
2018-05-15T09:21:07.869Z,24.30
2018-05-15T09:23:11.152Z,24.40
2018-05-15T09:25:13.581Z,24.40
2018-05-15T09:27:16.052Z,24.50
2018-05-15T09:29:18.532Z,24.50
2018-05-15T09:31:22.121Z,24.30
2018-05-15T09:33:24.562Z,24.30
2018-05-15T09:35:27.108Z,24.40
2018-05-15T09:37:29.619Z,24.50
2018-05-15T09:39:32.178Z,24.50
2018-05-15T09:41:35.396Z,24.50
2018-05-15T09:43:53.472Z,24.50
2018-05-15T09:45:56.759Z,24.60
2018-05-15T09:47:59.188Z,24.60
2018-05-15T09:50:01.686Z,24.70
2018-05-15T09:52:04.308Z,24.60
2018-05-15T09:54:08.015Z,24.80
2018-05-15T09:56:10.485Z,24.80
2018-05-15T09:58:13.617Z,24.70
2018-05-15T10:00:16.040Z,24.60
2018-05-15T10:02:18.556Z,24.60
2018-05-15T10:04:20.993Z,24.80
2018-05-15T10:06:23.454Z,24.80
2018-05-15T10:08:25.951Z,24.90
2018-05-15T10:10:28.421Z,25.00
2018-05-15T10:12:30.852Z,25.10
2018-05-15T10:14:33.301Z,25.20
2018-05-15T10:16:36.537Z,25.30
2018-05-15T10:18:38.979Z,25.30
2018-05-15T10:20:41.434Z,25.50
2018-05-15T10:22:44.620Z,25.70
2018-05-15T10:24:47.837Z,25.80
2018-05-15T10:26:50.292Z,25.80
2018-05-15T10:28:52.808Z,25.90
2018-05-15T10:30:55.258Z,26.00
2018-05-15T10:32:57.727Z,26.10
2018-05-15T10:35:00.178Z,26.20
2018-05-15T10:37:02.608Z,26.10
2018-05-15T10:39:05.868Z,25.80
2018-05-15T10:41:08.323Z,25.80
2018-05-15T10:43:10.793Z,25.90
2018-05-15T10:45:13.297Z,26.10
2018-05-15T10:47:15.829Z,26.10
2018-05-15T10:49:18.313Z,26.00
2018-05-15T10:51:20.769Z,26.00
2018-05-15T10:53:23.225Z,26.10
2018-05-15T10:55:25.692Z,26.10
2018-05-15T10:57:28.902Z,26.20
2018-05-15T10:59:31.429Z,26.20
2018-05-15T11:01:33.804Z,26.20
2018-05-15T11:03:37.061Z,26.20
2018-05-15T11:05:39.534Z,26.20
2018-05-15T11:07:41.977Z,26.20
2018-05-15T11:09:44.455Z,26.10
2018-05-15T11:11:46.866Z,26.10
2018-05-15T11:13:50.706Z,26.30
2018-05-15T11:15:53.192Z,26.20
2018-05-15T11:17:55.762Z,26.30
2018-05-15T11:20:09.917Z,26.30
2018-05-15T11:22:24.342Z,26.30
2018-05-15T11:24:38.852Z,26.20
2018-05-15T11:26:41.989Z,26.30
2018-05-15T11:28:44.409Z,26.20
2018-05-15T11:30:47.603Z,26.50
2018-05-15T11:32:50.832Z,26.30
2018-05-15T11:34:53.270Z,26.20
2018-05-15T11:36:56.466Z,26.10
2018-05-15T11:38:58.894Z,26.10
2018-05-15T11:41:01.439Z,26.10
2018-05-15T11:43:03.909Z,26.00
2018-05-15T11:45:06.394Z,25.90
2018-05-15T11:47:08.835Z,26.00
2018-05-15T11:49:12.055Z,26.10
2018-05-15T11:51:15.185Z,26.20
2018-05-15T11:53:18.313Z,26.10
2018-05-15T11:55:20.144Z,26.10
2018-05-15T11:57:22.576Z,26.10
2018-05-15T11:59:25.764Z,26.20
2018-05-15T12:01:28.984Z,26.00
2018-05-15T12:03:31.420Z,25.90
2018-05-15T12:05:34.625Z,25.60
2018-05-15T12:07:37.844Z,25.80
2018-05-15T12:09:40.280Z,25.70
2018-05-15T12:11:42.716Z,25.80
2018-05-15T12:13:45.155Z,25.60
2018-05-15T12:15:47.625Z,25.40
2018-05-15T12:17:50.037Z,25.50
2018-05-15T12:19:53.244Z,25.70
2018-05-15T12:21:56.472Z,25.60
2018-05-15T12:23:58.943Z,25.60
2018-05-15T12:26:01.393Z,25.40
2018-05-15T12:28:03.855Z,25.30
2018-05-15T12:30:07.047Z,25.30
2018-05-15T12:32:09.489Z,25.30
2018-05-15T12:34:11.918Z,25.40
2018-05-15T12:36:14.373Z,25.60
2018-05-15T12:38:16.849Z,25.60
2018-05-15T12:40:19.298Z,25.70
2018-05-15T12:42:21.741Z,25.80
2018-05-15T12:44:24.949Z,25.80
2018-05-15T12:46:28.105Z,25.80
2018-05-15T12:48:31.447Z,25.70
2018-05-15T12:50:33.932Z,25.70
2018-05-15T12:52:36.427Z,25.60
2018-05-15T12:54:38.992Z,25.70
2018-05-15T12:56:41.473Z,25.80
2018-05-15T12:58:43.919Z,25.70
2018-05-15T13:00:46.378Z,25.80
2018-05-15T13:02:48.799Z,25.80
2018-05-15T13:04:52.047Z,25.90
2018-05-15T13:06:54.481Z,25.80
2018-05-15T13:08:56.953Z,25.80
2018-05-15T13:10:59.452Z,25.60
2018-05-15T13:13:01.856Z,25.60
2018-05-15T13:15:05.108Z,25.90
2018-05-15T13:17:07.584Z,25.90
2018-05-15T13:19:10.157Z,25.90
2018-05-15T13:21:12.548Z,25.80
2018-05-15T13:23:15.080Z,25.80
2018-05-15T13:25:17.501Z,26.00
2018-05-15T13:27:20.761Z,26.30
2018-05-15T13:29:23.197Z,26.30
2018-05-15T13:31:25.669Z,26.40
2018-05-15T13:33:28.104Z,26.40
2018-05-15T13:35:30.658Z,26.50
2018-05-15T13:37:33.093Z,26.40
2018-05-15T13:39:35.593Z,26.30
2018-05-15T13:41:38.053Z,26.30
2018-05-15T13:43:40.489Z,26.40
2018-05-15T13:45:42.944Z,26.30
2018-05-15T13:47:45.452Z,26.30
2018-05-15T13:49:47.917Z,26.20
2018-05-15T13:51:50.372Z,26.30
2018-05-15T13:53:52.862Z,26.30
2018-05-15T13:55:55.327Z,26.20
2018-05-15T13:57:57.872Z,26.10
2018-05-15T14:00:01.079Z,25.80
2018-05-15T14:02:03.544Z,25.70
2018-05-15T14:04:06.013Z,25.70
2018-05-15T14:06:08.463Z,25.70
2018-05-15T14:08:10.905Z,25.80
2018-05-15T14:10:14.140Z,26.20
2018-05-15T14:12:17.002Z,26.20
2018-05-15T14:14:19.613Z,26.50
2018-05-15T14:16:22.172Z,26.70
2018-05-15T14:18:24.742Z,26.80
2018-05-15T14:20:27.172Z,27.00
2018-05-15T14:22:30.411Z,26.90
2018-05-15T14:24:32.841Z,26.90
2018-05-15T14:26:35.300Z,26.90
2018-05-15T14:28:38.499Z,26.70
2018-05-15T14:30:40.924Z,26.60
2018-05-15T14:32:43.370Z,26.70
2018-05-15T14:34:45.797Z,26.80
2018-05-15T14:36:49.084Z,26.70
2018-05-15T14:38:52.348Z,26.60
2018-05-15T14:40:55.553Z,26.60
2018-05-15T14:43:10.716Z,26.70
2018-05-15T14:45:15.810Z,26.60
2018-05-15T14:47:18.260Z,26.80
2018-05-15T14:49:20.719Z,26.70
2018-05-15T14:51:30.181Z,26.60
2018-05-15T14:53:32.642Z,26.60
2018-05-15T14:55:35.123Z,26.80
2018-05-15T14:57:37.593Z,27.00
2018-05-15T14:59:40.027Z,27.10
2018-05-15T15:01:43.235Z,26.80
2018-05-15T15:03:46.549Z,26.70
2018-05-15T15:05:49.461Z,26.70
2018-05-15T15:07:51.913Z,26.50
2018-05-15T15:09:54.333Z,26.30
2018-05-15T15:11:57.549Z,26.30
2018-05-15T15:14:00.003Z,26.30
2018-05-15T15:16:02.479Z,26.40
2018-05-15T15:18:04.955Z,26.50
2018-05-15T15:20:07.373Z,26.60
2018-05-15T15:22:10.568Z,26.80
2018-05-15T15:24:13.017Z,26.70
2018-05-15T15:26:16.977Z,26.90
2018-05-15T15:28:19.442Z,26.90
2018-05-15T15:30:21.881Z,27.10
2018-05-15T15:32:25.117Z,27.10
2018-05-15T15:34:27.537Z,27.10
2018-05-15T15:36:30.741Z,27.20
2018-05-15T15:38:33.181Z,27.20
2018-05-15T15:40:36.402Z,27.10
2018-05-15T15:42:39.608Z,27.00
2018-05-15T15:44:42.024Z,26.90
2018-05-15T15:46:45.997Z,27.00
2018-05-15T15:48:48.849Z,27.00
2018-05-15T15:50:51.400Z,27.10
2018-05-15T15:52:54.601Z,27.00
2018-05-15T15:54:57.134Z,26.90
2018-05-15T15:56:59.755Z,26.90
2018-05-15T15:59:02.168Z,26.80
2018-05-15T16:01:04.801Z,26.70
2018-05-15T16:03:07.447Z,26.80
2018-05-15T16:05:10.645Z,26.60
2018-05-15T16:07:13.070Z,26.60
2018-05-15T16:09:15.555Z,26.60
2018-05-15T16:11:18.754Z,27.10
2018-05-15T16:13:21.981Z,27.30
2018-05-15T16:15:24.431Z,27.20
2018-05-15T16:17:26.871Z,27.10
2018-05-15T16:19:29.319Z,26.90
2018-05-15T16:21:31.968Z,26.80
2018-05-15T16:23:34.536Z,26.70
2018-05-15T16:25:36.993Z,26.90
2018-05-15T16:27:39.472Z,27.00
2018-05-15T16:29:42.031Z,26.90
2018-05-15T16:31:45.233Z,26.40
2018-05-15T16:33:47.827Z,26.30
2018-05-15T16:35:50.245Z,26.20
2018-05-15T16:37:53.679Z,25.90
2018-05-15T16:39:56.231Z,25.90
2018-05-15T16:41:58.722Z,25.80
2018-05-15T16:44:01.140Z,25.70
2018-05-15T16:46:04.455Z,25.60
2018-05-15T16:48:06.928Z,25.60
2018-05-15T16:50:09.408Z,25.60
2018-05-15T16:52:11.840Z,25.60
2018-05-15T16:54:15.145Z,25.60
2018-05-15T16:56:18.443Z,25.60
2018-05-15T16:58:21.732Z,25.80
2018-05-15T17:00:24.207Z,25.80
2018-05-15T17:02:26.617Z,25.90
2018-05-15T17:04:29.051Z,26.00
2018-05-15T17:06:31.496Z,26.00
2018-05-15T17:08:34.716Z,25.90
2018-05-15T17:10:37.273Z,25.90
2018-05-15T17:12:40.464Z,26.00
2018-05-15T17:14:43.035Z,25.90
2018-05-15T17:16:46.221Z,26.10
2018-05-15T17:18:48.689Z,26.10
2018-05-15T17:20:51.177Z,26.20
2018-05-15T17:22:53.652Z,26.40
2018-05-15T17:24:56.116Z,26.60
2018-05-15T17:26:59.513Z,26.60
2018-05-15T17:29:02.061Z,26.60
2018-05-15T17:31:05.388Z,26.60
2018-05-15T17:33:07.764Z,26.50
2018-05-15T17:35:10.291Z,26.60
2018-05-15T17:37:12.863Z,26.70
2018-05-15T17:39:16.101Z,26.90
2018-05-15T17:41:18.555Z,26.90
2018-05-15T17:43:20.996Z,27.90
2018-05-15T17:45:23.461Z,28.70
2018-05-15T17:47:26.029Z,29.30
2018-05-15T17:49:28.477Z,29.70
2018-05-15T17:51:30.985Z,30.10
2018-05-15T17:53:33.418Z,30.40
2018-05-15T17:55:36.620Z,31.10
2018-05-15T17:57:39.851Z,31.10
2018-05-15T17:59:42.391Z,31.10
2018-05-15T18:01:44.840Z,30.40
2018-05-15T18:03:48.048Z,29.30
2018-05-15T18:05:50.485Z,30.10
2018-05-15T18:07:53.721Z,30.20
2018-05-15T18:09:56.148Z,30.20
2018-05-15T18:11:59.381Z,28.90
2018-05-15T18:14:01.858Z,28.90
2018-05-15T18:16:04.448Z,28.30
2018-05-15T18:18:06.894Z,27.90
2018-05-15T18:20:09.360Z,27.30
2018-05-15T18:22:12.761Z,26.90
2018-05-15T18:24:15.196Z,26.70
2018-05-15T18:26:18.497Z,26.10
2018-05-15T18:28:20.987Z,26.10
2018-05-15T18:30:23.539Z,25.80
2018-05-15T18:32:26.757Z,25.40
2018-05-15T18:34:29.218Z,25.40
2018-05-15T18:36:31.687Z,25.40
2018-05-15T18:38:34.115Z,25.30
2018-05-15T18:40:37.306Z,25.30
2018-05-15T18:42:41.227Z,25.10
2018-05-15T18:44:44.516Z,25.00
2018-05-15T18:46:47.703Z,24.90
2018-05-15T18:48:51.068Z,24.80
2018-05-15T18:50:53.606Z,24.70
2018-05-15T18:52:56.061Z,24.50
2018-05-15T18:54:58.495Z,24.40
2018-05-15T18:57:01.722Z,24.10
2018-05-15T18:59:04.181Z,24.10
2018-05-15T19:01:06.589Z,24.00
2018-05-15T19:03:09.044Z,23.90
2018-05-15T19:05:11.489Z,23.80
2018-05-15T19:07:13.973Z,23.70
2018-05-15T19:09:17.335Z,23.50
2018-05-15T19:11:19.749Z,23.40
2018-05-15T19:13:22.189Z,23.30
2018-05-15T19:15:24.640Z,23.20
2018-05-15T19:17:27.108Z,23.00
2018-05-15T19:19:30.494Z,22.90
2018-05-15T19:21:32.784Z,22.80
2018-05-15T19:23:35.574Z,22.80
2018-05-15T19:25:38.038Z,22.70
2018-05-15T19:27:40.516Z,22.70
2018-05-15T19:29:42.973Z,22.60
2018-05-15T19:31:45.403Z,22.60
2018-05-15T19:33:51.693Z,22.60
2018-05-15T19:35:54.112Z,22.60
2018-05-15T19:37:57.352Z,22.60
2018-05-15T19:39:59.773Z,22.60
2018-05-15T19:42:02.197Z,22.50
2018-05-15T19:44:04.672Z,22.50
2018-05-15T19:46:07.117Z,22.50
2018-05-15T19:48:09.553Z,22.40
2018-05-15T19:50:11.993Z,22.40
2018-05-15T19:52:14.457Z,22.40
2018-05-15T19:54:16.944Z,22.30
2018-05-15T19:56:19.374Z,22.30
2018-05-15T19:58:21.864Z,22.20
2018-05-15T20:00:24.323Z,22.10
2018-05-15T20:02:26.780Z,22.00
2018-05-15T20:04:29.228Z,22.00
2018-05-15T20:06:32.469Z,22.00
2018-05-15T20:08:34.979Z,21.90
2018-05-15T20:10:37.396Z,21.90
2018-05-15T20:12:39.887Z,21.90
2018-05-15T20:14:42.341Z,21.80
2018-05-15T20:16:44.773Z,21.80
2018-05-15T20:18:47.978Z,21.70
2018-05-15T20:20:50.445Z,21.70
2018-05-15T20:22:52.884Z,21.60
2018-05-15T20:24:55.336Z,21.60
2018-05-15T20:26:57.876Z,21.60
2018-05-15T20:29:00.362Z,21.50
2018-05-15T20:31:02.825Z,21.50
2018-05-15T20:33:05.316Z,21.50
2018-05-15T20:35:07.785Z,21.40
2018-05-15T20:37:10.269Z,21.30
2018-05-15T20:39:12.736Z,21.30
2018-05-15T20:41:15.985Z,21.30
2018-05-15T20:43:18.416Z,21.30
2018-05-15T20:45:21.620Z,21.30
2018-05-15T20:47:24.068Z,21.30
2018-05-15T20:49:27.264Z,21.20
2018-05-15T20:51:30.469Z,21.30
2018-05-15T20:53:33.010Z,21.30
2018-05-15T20:55:35.440Z,21.30
2018-05-15T20:57:38.716Z,21.10
2018-05-15T20:59:41.157Z,21.10
2018-05-15T21:01:44.594Z,21.10
2018-05-15T21:03:47.012Z,21.10
2018-05-15T21:05:50.285Z,21.10
2018-05-15T21:07:52.703Z,21.00
2018-05-15T21:09:55.134Z,21.10
2018-05-15T21:11:58.381Z,21.10
2018-05-15T21:14:00.821Z,21.10
2018-05-15T21:16:03.276Z,21.00
2018-05-15T21:18:05.725Z,21.00
2018-05-15T21:20:08.186Z,21.00
2018-05-15T21:22:10.723Z,21.00
2018-05-15T21:24:13.190Z,20.90
2018-05-15T21:26:17.410Z,20.90
2018-05-15T21:28:19.852Z,20.90
2018-05-15T21:30:22.288Z,20.80
2018-05-15T21:32:25.558Z,20.60
2018-05-15T21:34:27.990Z,20.60
2018-05-15T21:36:30.465Z,20.60
2018-05-15T21:38:32.946Z,20.60
2018-05-15T21:40:36.251Z,20.60
2018-05-15T21:42:38.706Z,20.50
2018-05-15T21:44:41.187Z,20.50
2018-05-15T21:46:43.624Z,20.50
2018-05-15T21:48:46.057Z,20.60
2018-05-15T21:50:48.557Z,20.50
2018-05-15T21:52:51.779Z,20.50
2018-05-15T21:54:54.233Z,20.50
2018-05-15T21:56:56.720Z,20.50
2018-05-15T21:58:59.212Z,20.50
2018-05-15T22:01:01.669Z,20.50
2018-05-15T22:03:05.048Z,20.50
2018-05-15T22:05:07.517Z,20.50
2018-05-15T22:07:10.135Z,20.50
2018-05-15T22:09:13.667Z,20.50
2018-05-15T22:11:16.299Z,20.50
2018-05-15T22:13:30.699Z,20.50
2018-05-15T22:15:46.404Z,20.50
2018-05-15T22:18:00.660Z,20.50
2018-05-15T22:20:16.143Z,20.40
2018-05-15T22:22:18.179Z,20.40
2018-05-15T22:24:35.498Z,20.40
2018-05-15T22:26:37.942Z,20.30
2018-05-15T22:28:40.407Z,20.30
2018-05-15T22:30:42.897Z,20.30
2018-05-15T22:32:45.340Z,20.40
2018-05-15T22:34:47.773Z,20.40
2018-05-15T22:36:50.334Z,20.30
2018-05-15T22:38:52.768Z,20.30
2018-05-15T22:40:55.239Z,20.30
2018-05-15T22:42:57.674Z,20.20
2018-05-15T22:45:00.901Z,20.20
2018-05-15T22:47:03.364Z,20.10
2018-05-15T22:49:05.814Z,20.10
2018-05-15T22:51:08.813Z,20.10
2018-05-15T22:53:11.245Z,20.10
2018-05-15T22:55:15.010Z,20.10
2018-05-15T22:57:17.542Z,20.10
2018-05-15T22:59:20.776Z,20.10
2018-05-15T23:01:23.204Z,20.10
2018-05-15T23:03:25.717Z,20.10
2018-05-15T23:05:28.275Z,20.10
2018-05-15T23:07:30.696Z,20.10
2018-05-15T23:09:33.917Z,20.10
2018-05-15T23:11:36.416Z,20.10
2018-05-15T23:13:38.849Z,20.10
2018-05-15T23:15:41.354Z,20.20
2018-05-15T23:17:43.809Z,20.10
2018-05-15T23:19:46.268Z,20.10
2018-05-15T23:21:48.733Z,20.00
2018-05-15T23:23:51.224Z,20.00
2018-05-15T23:25:53.707Z,20.00
2018-05-15T23:27:56.189Z,19.90
2018-05-15T23:29:58.625Z,19.90
2018-05-15T23:32:01.100Z,19.80
2018-05-15T23:34:03.540Z,19.80
2018-05-15T23:36:06.009Z,19.80
2018-05-15T23:38:08.528Z,19.80
2018-05-15T23:40:11.012Z,19.80
2018-05-15T23:42:13.454Z,19.80
2018-05-15T23:44:15.948Z,19.80
2018-05-15T23:46:18.394Z,19.90
2018-05-15T23:48:20.892Z,20.00
2018-05-15T23:50:23.320Z,20.00
2018-05-15T23:52:25.812Z,20.00
2018-05-15T23:54:28.293Z,20.00
2018-05-15T23:56:30.840Z,20.00
2018-05-15T23:58:33.328Z,20.00
